Aérodrome :
LOGIN :

S'inscrire | Disclaimer

   EN    FR    IT 

 










Légende :    VFR   VFR Marginal   IFR   IFR Intensif   IFR Très Intensif
Visi : 
Plafond : 
>= 8 km
>= 3000ft
5 à 8 km
1000 à 3000 ft
1500m à 5 km
500 à 1000 ft
800 à 1500m
200 à 500 ft
< 800m
< 200 ft
Symboles :   Orages  Brouillard  Fortes neiges  Fortes précipitations  Vent > 20 kt
SIGMETs :   Divers  Orages  Givrage  Turbulence  Onde Orograph.  Cendres Volcan.







- Altitude de l'aérodrome : 461 ft
- Code IATA : WIE


ETOU - Wiesbaden Army

DERNIER METAR :
  • 180656Z AUTO 35004KT 9999 CLR 11/06 A3030 RMK AO2 SLP263 T01080055 $

METARs EXPIRÉS :
  • 180556Z AUTO 35004KT 9999 CLR 09/05 A3029 RMK AO2 SLPNO T00900050 10107 20067 52006 $
  • 180456Z AUTO 35003KT 9999 CLR 08/04 A3028 RMK AO2 SLPNO T00790043 $

TAF TAF ETOU
Valide du 18 à 03h jusqu'au 19 à 09h UTC


180300Z 1803/1909 VRB06KT 9999 SCT030 QNH3024INS
BECMG 1813/1814 36006KT 9999 BKN060 620601 QNH3029INS
BECMG 1816/1817 36006KT 9999 SCT060 QNH3029INS
BECMG 1903/1904 01006KT 9999 BKN050 620501 QNH3037INS TX17/1813Z TN05/1902Z
Pas de NOTAMs connus pour ce terrain.



MET'MAP, la Météo Aéronautique d'un coup d'oeil ! - Copyright ORBIFLY Décembre 2007 - Disclaimer

ORBIFLY MET'MAP TEAM :

Programmation & Développement : Alexandra Zaïnal
Conception & Développement : Baudouin d'Aumeries
Co-Programmation & Développement : Marc-Olivier Méhu
Soutien technique & logistique : Manuel Goepfert

Contact : metmap@orbifly.com




SOURCES & CREDITS :

   NOAA